sensor_id;sensor_type;location;lat;lon;timestamp;temperature;humidity
70366;DHT22;57787;48.216;12.396;2024-02-26T00:01:10;-1.00;90.50
70366;DHT22;57787;48.216;12.396;2024-02-26T00:03:36;-1.00;90.40
70366;DHT22;57787;48.216;12.396;2024-02-26T00:06:04;-1.10;90.30
70366;DHT22;57787;48.216;12.396;2024-02-26T00:08:31;-1.10;90.30
70366;DHT22;57787;48.216;12.396;2024-02-26T00:10:57;-1.10;90.40
70366;DHT22;57787;48.216;12.396;2024-02-26T00:13:24;-1.00;90.40
70366;DHT22;57787;48.216;12.396;2024-02-26T00:15:51;-1.00;90.40
70366;DHT22;57787;48.216;12.396;2024-02-26T00:18:18;-1.00;90.30
70366;DHT22;57787;48.216;12.396;2024-02-26T00:20:44;-1.00;90.30
70366;DHT22;57787;48.216;12.396;2024-02-26T00:23:11;-1.10;90.40
70366;DHT22;57787;48.216;12.396;2024-02-26T00:25:41;-1.10;90.40
70366;DHT22;57787;48.216;12.396;2024-02-26T00:28:10;-1.10;90.30
70366;DHT22;57787;48.216;12.396;2024-02-26T00:30:37;-1.10;90.50
70366;DHT22;57787;48.216;12.396;2024-02-26T00:33:05;-1.10;90.60
70366;DHT22;57787;48.216;12.396;2024-02-26T00:35:32;-1.10;90.40
70366;DHT22;57787;48.216;12.396;2024-02-26T00:38:00;-1.10;90.60
70366;DHT22;57787;48.216;12.396;2024-02-26T00:40:28;-1.20;90.50
70366;DHT22;57787;48.216;12.396;2024-02-26T00:42:55;-1.10;90.60
70366;DHT22;57787;48.216;12.396;2024-02-26T00:45:22;-1.10;90.60
70366;DHT22;57787;48.216;12.396;2024-02-26T00:47:49;-1.10;90.50
70366;DHT22;57787;48.216;12.396;2024-02-26T00:50:16;-1.10;90.60
70366;DHT22;57787;48.216;12.396;2024-02-26T00:52:43;-1.10;90.60
70366;DHT22;57787;48.216;12.396;2024-02-26T00:55:10;-1.20;90.60
70366;DHT22;57787;48.216;12.396;2024-02-26T00:57:36;-1.20;90.60
70366;DHT22;57787;48.216;12.396;2024-02-26T01:00:03;-1.20;90.60
70366;DHT22;57787;48.216;12.396;2024-02-26T01:02:30;-1.20;90.60
70366;DHT22;57787;48.216;12.396;2024-02-26T01:04:57;-1.20;90.80
70366;DHT22;57787;48.216;12.396;2024-02-26T01:07:24;-1.20;90.70
70366;DHT22;57787;48.216;12.396;2024-02-26T01:09:51;-1.20;91.10
70366;DHT22;57787;48.216;12.396;2024-02-26T01:12:17;-1.10;91.20
70366;DHT22;57787;48.216;12.396;2024-02-26T01:14:44;-1.10;90.80
70366;DHT22;57787;48.216;12.396;2024-02-26T01:17:11;-1.20;90.60
70366;DHT22;57787;48.216;12.396;2024-02-26T01:19:38;-1.20;90.40
70366;DHT22;57787;48.216;12.396;2024-02-26T01:22:04;-1.30;90.50
70366;DHT22;57787;48.216;12.396;2024-02-26T01:24:31;-1.30;90.50
70366;DHT22;57787;48.216;12.396;2024-02-26T01:26:58;-1.40;90.50
70366;DHT22;57787;48.216;12.396;2024-02-26T01:29:24;-1.40;90.60
70366;DHT22;57787;48.216;12.396;2024-02-26T01:31:51;-1.40;90.50
70366;DHT22;57787;48.216;12.396;2024-02-26T01:34:18;-1.40;90.50
70366;DHT22;57787;48.216;12.396;2024-02-26T01:36:45;-1.40;90.60
70366;DHT22;57787;48.216;12.396;2024-02-26T01:39:12;-1.30;90.60
70366;DHT22;57787;48.216;12.396;2024-02-26T01:41:39;-1.20;90.70
70366;DHT22;57787;48.216;12.396;2024-02-26T01:44:06;-1.20;90.70
70366;DHT22;57787;48.216;12.396;2024-02-26T01:46:34;-1.20;90.70
70366;DHT22;57787;48.216;12.396;2024-02-26T01:49:01;-1.20;90.70
70366;DHT22;57787;48.216;12.396;2024-02-26T01:51:28;-1.20;90.70
70366;DHT22;57787;48.216;12.396;2024-02-26T01:53:57;-1.30;90.40
70366;DHT22;57787;48.216;12.396;2024-02-26T01:56:24;-1.40;90.70
70366;DHT22;57787;48.216;12.396;2024-02-26T01:58:57;-1.40;90.80
70366;DHT22;57787;48.216;12.396;2024-02-26T02:01:26;-1.40;90.70
70366;DHT22;57787;48.216;12.396;2024-02-26T02:03:54;-1.40;90.50
70366;DHT22;57787;48.216;12.396;2024-02-26T02:06:21;-1.50;90.60
70366;DHT22;57787;48.216;12.396;2024-02-26T02:08:48;-1.50;90.40
70366;DHT22;57787;48.216;12.396;2024-02-26T02:11:16;-1.50;90.90
70366;DHT22;57787;48.216;12.396;2024-02-26T02:13:43;-1.60;90.70
70366;DHT22;57787;48.216;12.396;2024-02-26T02:16:09;-1.60;90.50
70366;DHT22;57787;48.216;12.396;2024-02-26T02:18:36;-1.60;90.60
70366;DHT22;57787;48.216;12.396;2024-02-26T02:21:03;-1.70;90.40
70366;DHT22;57787;48.216;12.396;2024-02-26T02:23:30;-1.60;90.70
70366;DHT22;57787;48.216;12.396;2024-02-26T02:25:57;-1.60;90.60
70366;DHT22;57787;48.216;12.396;2024-02-26T02:28:25;-1.60;90.60
70366;DHT22;57787;48.216;12.396;2024-02-26T02:30:52;-1.60;90.60
70366;DHT22;57787;48.216;12.396;2024-02-26T02:33:20;-1.70;90.50
70366;DHT22;57787;48.216;12.396;2024-02-26T02:35:47;-1.70;90.60
70366;DHT22;57787;48.216;12.396;2024-02-26T02:38:17;-1.70;90.60
70366;DHT22;57787;48.216;12.396;2024-02-26T02:40:44;-1.70;90.70
70366;DHT22;57787;48.216;12.396;2024-02-26T02:43:10;-1.70;90.60
70366;DHT22;57787;48.216;12.396;2024-02-26T02:45:37;-1.70;90.60
70366;DHT22;57787;48.216;12.396;2024-02-26T02:48:04;-1.80;90.50
70366;DHT22;57787;48.216;12.396;2024-02-26T02:50:48;-1.80;90.60
70366;DHT22;57787;48.216;12.396;2024-02-26T02:53:15;-1.80;90.40
70366;DHT22;57787;48.216;12.396;2024-02-26T02:55:42;-1.80;90.60
70366;DHT22;57787;48.216;12.396;2024-02-26T02:58:09;-1.70;90.80
70366;DHT22;57787;48.216;12.396;2024-02-26T03:00:36;-1.70;90.90
70366;DHT22;57787;48.216;12.396;2024-02-26T03:03:03;-1.70;90.80
70366;DHT22;57787;48.216;12.396;2024-02-26T03:05:30;-1.70;90.70
70366;DHT22;57787;48.216;12.396;2024-02-26T03:07:57;-1.70;90.60
70366;DHT22;57787;48.216;12.396;2024-02-26T03:10:24;-1.70;90.50
70366;DHT22;57787;48.216;12.396;2024-02-26T03:12:51;-1.70;90.60
70366;DHT22;57787;48.216;12.396;2024-02-26T03:15:17;-1.70;90.80
70366;DHT22;57787;48.216;12.396;2024-02-26T03:17:44;-1.60;90.90
70366;DHT22;57787;48.216;12.396;2024-02-26T03:20:11;-1.60;91.00
70366;DHT22;57787;48.216;12.396;2024-02-26T03:22:38;-1.50;91.00
70366;DHT22;57787;48.216;12.396;2024-02-26T03:25:05;-1.50;91.00
70366;DHT22;57787;48.216;12.396;2024-02-26T03:27:32;-1.50;90.90
70366;DHT22;57787;48.216;12.396;2024-02-26T03:29:59;-1.50;90.90
70366;DHT22;57787;48.216;12.396;2024-02-26T03:32:26;-1.40;90.90
70366;DHT22;57787;48.216;12.396;2024-02-26T03:34:53;-1.50;90.80
70366;DHT22;57787;48.216;12.396;2024-02-26T03:37:23;-1.50;90.80
70366;DHT22;57787;48.216;12.396;2024-02-26T03:39:50;-1.50;90.90
70366;DHT22;57787;48.216;12.396;2024-02-26T03:42:17;-1.50;90.70
70366;DHT22;57787;48.216;12.396;2024-02-26T03:44:44;-1.50;91.00
70366;DHT22;57787;48.216;12.396;2024-02-26T03:47:10;-1.60;90.70
70366;DHT22;57787;48.216;12.396;2024-02-26T03:49:37;-1.60;90.60
70366;DHT22;57787;48.216;12.396;2024-02-26T03:52:04;-1.60;90.70
70366;DHT22;57787;48.216;12.396;2024-02-26T03:54:31;-1.60;90.50
70366;DHT22;57787;48.216;12.396;2024-02-26T03:57:00;-1.60;90.50
70366;DHT22;57787;48.216;12.396;2024-02-26T03:59:27;-1.70;90.40
70366;DHT22;57787;48.216;12.396;2024-02-26T04:01:54;-1.70;90.40
70366;DHT22;57787;48.216;12.396;2024-02-26T04:04:21;-1.80;90.40
70366;DHT22;57787;48.216;12.396;2024-02-26T04:06:47;-1.70;90.50
70366;DHT22;57787;48.216;12.396;2024-02-26T04:09:14;-1.70;90.70
70366;DHT22;57787;48.216;12.396;2024-02-26T04:11:41;-1.70;91.10
70366;DHT22;57787;48.216;12.396;2024-02-26T04:14:10;-1.70;90.80
70366;DHT22;57787;48.216;12.396;2024-02-26T04:16:38;-1.70;90.70
70366;DHT22;57787;48.216;12.396;2024-02-26T04:19:05;-1.70;91.40
70366;DHT22;57787;48.216;12.396;2024-02-26T04:21:34;-1.80;90.90
70366;DHT22;57787;48.216;12.396;2024-02-26T04:24:01;-1.80;90.70
70366;DHT22;57787;48.216;12.396;2024-02-26T04:26:29;-1.80;90.70
70366;DHT22;57787;48.216;12.396;2024-02-26T04:28:56;-1.90;90.80
70366;DHT22;57787;48.216;12.396;2024-02-26T04:31:23;-1.90;90.90
70366;DHT22;57787;48.216;12.396;2024-02-26T04:33:50;-1.90;90.60
70366;DHT22;57787;48.216;12.396;2024-02-26T04:36:17;-1.90;90.60
70366;DHT22;57787;48.216;12.396;2024-02-26T04:38:44;-1.90;90.60
70366;DHT22;57787;48.216;12.396;2024-02-26T04:41:10;-1.90;90.70
70366;DHT22;57787;48.216;12.396;2024-02-26T04:43:37;-1.90;90.60
70366;DHT22;57787;48.216;12.396;2024-02-26T04:46:08;-2.00;90.70
70366;DHT22;57787;48.216;12.396;2024-02-26T04:48:35;-2.00;90.80
70366;DHT22;57787;48.216;12.396;2024-02-26T04:51:02;-1.90;90.80
70366;DHT22;57787;48.216;12.396;2024-02-26T04:53:29;-1.90;90.80
70366;DHT22;57787;48.216;12.396;2024-02-26T04:55:56;-1.90;90.80
70366;DHT22;57787;48.216;12.396;2024-02-26T04:58:23;-1.80;90.90
70366;DHT22;57787;48.216;12.396;2024-02-26T05:00:49;-1.80;90.80
70366;DHT22;57787;48.216;12.396;2024-02-26T05:03:18;-1.80;90.70
70366;DHT22;57787;48.216;12.396;2024-02-26T05:05:44;-1.80;90.80
70366;DHT22;57787;48.216;12.396;2024-02-26T05:08:12;-1.70;90.70
70366;DHT22;57787;48.216;12.396;2024-02-26T05:10:39;-1.70;90.80
70366;DHT22;57787;48.216;12.396;2024-02-26T05:13:07;-1.70;90.80
70366;DHT22;57787;48.216;12.396;2024-02-26T05:15:34;-1.60;91.00
70366;DHT22;57787;48.216;12.396;2024-02-26T05:18:01;-1.70;90.80
70366;DHT22;57787;48.216;12.396;2024-02-26T05:20:29;-1.60;90.90
70366;DHT22;57787;48.216;12.396;2024-02-26T05:22:56;-1.60;90.90
70366;DHT22;57787;48.216;12.396;2024-02-26T05:25:25;-1.60;90.90
70366;DHT22;57787;48.216;12.396;2024-02-26T05:27:52;-1.60;90.90
70366;DHT22;57787;48.216;12.396;2024-02-26T05:30:18;-1.50;90.90
70366;DHT22;57787;48.216;12.396;2024-02-26T05:32:45;-1.50;91.00
70366;DHT22;57787;48.216;12.396;2024-02-26T05:35:12;-1.50;91.10
70366;DHT22;57787;48.216;12.396;2024-02-26T05:37:39;-1.40;91.00
70366;DHT22;57787;48.216;12.396;2024-02-26T05:40:06;-1.40;91.10
70366;DHT22;57787;48.216;12.396;2024-02-26T05:42:32;-1.40;90.90
70366;DHT22;57787;48.216;12.396;2024-02-26T05:45:00;-1.40;90.80
70366;DHT22;57787;48.216;12.396;2024-02-26T05:47:32;-1.40;90.90
70366;DHT22;57787;48.216;12.396;2024-02-26T05:49:59;-1.40;90.80
70366;DHT22;57787;48.216;12.396;2024-02-26T05:52:27;-1.40;90.70
70366;DHT22;57787;48.216;12.396;2024-02-26T05:54:55;-1.40;90.70
70366;DHT22;57787;48.216;12.396;2024-02-26T05:57:22;-1.50;90.80
70366;DHT22;57787;48.216;12.396;2024-02-26T05:59:49;-1.50;90.70
70366;DHT22;57787;48.216;12.396;2024-02-26T06:02:16;-1.60;90.50
70366;DHT22;57787;48.216;12.396;2024-02-26T06:04:42;-1.60;90.50
70366;DHT22;57787;48.216;12.396;2024-02-26T06:07:10;-1.60;90.40
70366;DHT22;57787;48.216;12.396;2024-02-26T06:09:37;-1.60;90.60
70366;DHT22;57787;48.216;12.396;2024-02-26T06:12:05;-1.70;90.50
70366;DHT22;57787;48.216;12.396;2024-02-26T06:14:32;-1.70;90.40
70366;DHT22;57787;48.216;12.396;2024-02-26T06:16:58;-1.70;90.50
70366;DHT22;57787;48.216;12.396;2024-02-26T06:19:26;-1.80;90.40
70366;DHT22;57787;48.216;12.396;2024-02-26T06:21:53;-1.70;90.40
70366;DHT22;57787;48.216;12.396;2024-02-26T06:24:20;-1.60;90.60
70366;DHT22;57787;48.216;12.396;2024-02-26T06:26:48;-1.60;90.60
70366;DHT22;57787;48.216;12.396;2024-02-26T06:29:15;-1.60;90.90
70366;DHT22;57787;48.216;12.396;2024-02-26T06:31:42;-1.50;90.90
70366;DHT22;57787;48.216;12.396;2024-02-26T06:34:09;-1.50;90.80
70366;DHT22;57787;48.216;12.396;2024-02-26T06:36:36;-1.40;90.70
70366;DHT22;57787;48.216;12.396;2024-02-26T06:39:03;-1.30;90.80
70366;DHT22;57787;48.216;12.396;2024-02-26T06:41:32;-1.20;90.80
70366;DHT22;57787;48.216;12.396;2024-02-26T06:43:58;-1.20;90.70
70366;DHT22;57787;48.216;12.396;2024-02-26T06:46:25;-1.10;90.80
70366;DHT22;57787;48.216;12.396;2024-02-26T06:48:53;-0.90;90.90
70366;DHT22;57787;48.216;12.396;2024-02-26T06:51:21;-0.80;91.10
70366;DHT22;57787;48.216;12.396;2024-02-26T06:53:49;-0.70;91.00
70366;DHT22;57787;48.216;12.396;2024-02-26T06:56:15;-0.50;91.20
70366;DHT22;57787;48.216;12.396;2024-02-26T06:58:42;-0.40;90.80
70366;DHT22;57787;48.216;12.396;2024-02-26T07:01:09;-0.30;90.80
70366;DHT22;57787;48.216;12.396;2024-02-26T07:03:36;-0.20;90.70
70366;DHT22;57787;48.216;12.396;2024-02-26T07:06:03;-0.10;90.60
70366;DHT22;57787;48.216;12.396;2024-02-26T07:08:30;0.00;90.90
70366;DHT22;57787;48.216;12.396;2024-02-26T07:10:57;0.10;90.80
70366;DHT22;57787;48.216;12.396;2024-02-26T07:13:24;0.20;90.70
70366;DHT22;57787;48.216;12.396;2024-02-26T07:15:50;0.30;90.50
70366;DHT22;57787;48.216;12.396;2024-02-26T07:18:18;0.30;90.40
70366;DHT22;57787;48.216;12.396;2024-02-26T07:20:45;0.40;90.40
70366;DHT22;57787;48.216;12.396;2024-02-26T07:23:12;0.50;90.50
70366;DHT22;57787;48.216;12.396;2024-02-26T07:25:39;0.60;90.60
70366;DHT22;57787;48.216;12.396;2024-02-26T07:28:08;0.80;90.50
70366;DHT22;57787;48.216;12.396;2024-02-26T07:30:38;0.90;90.50
70366;DHT22;57787;48.216;12.396;2024-02-26T07:33:07;1.00;90.50
70366;DHT22;57787;48.216;12.396;2024-02-26T07:35:34;1.10;90.50
70366;DHT22;57787;48.216;12.396;2024-02-26T07:38:03;1.20;90.50
70366;DHT22;57787;48.216;12.396;2024-02-26T07:40:30;1.30;90.80
70366;DHT22;57787;48.216;12.396;2024-02-26T07:42:56;1.50;90.70
70366;DHT22;57787;48.216;12.396;2024-02-26T07:45:23;1.60;90.50
70366;DHT22;57787;48.216;12.396;2024-02-26T07:47:50;1.70;90.20
70366;DHT22;57787;48.216;12.396;2024-02-26T07:50:18;1.90;89.60
70366;DHT22;57787;48.216;12.396;2024-02-26T07:52:49;2.00;89.70
70366;DHT22;57787;48.216;12.396;2024-02-26T07:55:19;2.20;89.50
70366;DHT22;57787;48.216;12.396;2024-02-26T07:57:46;2.40;89.70
70366;DHT22;57787;48.216;12.396;2024-02-26T08:00:13;2.60;89.30
70366;DHT22;57787;48.216;12.396;2024-02-26T08:02:46;2.90;88.90
70366;DHT22;57787;48.216;12.396;2024-02-26T08:05:13;3.20;88.90
70366;DHT22;57787;48.216;12.396;2024-02-26T08:07:44;3.40;88.40
70366;DHT22;57787;48.216;12.396;2024-02-26T08:10:11;3.70;86.90
70366;DHT22;57787;48.216;12.396;2024-02-26T08:12:37;3.90;87.00
70366;DHT22;57787;48.216;12.396;2024-02-26T08:15:04;4.20;87.00
70366;DHT22;57787;48.216;12.396;2024-02-26T08:17:31;4.40;85.80
70366;DHT22;57787;48.216;12.396;2024-02-26T08:19:59;4.50;84.60
70366;DHT22;57787;48.216;12.396;2024-02-26T08:22:26;4.80;85.30
70366;DHT22;57787;48.216;12.396;2024-02-26T08:24:55;4.90;84.50
70366;DHT22;57787;48.216;12.396;2024-02-26T08:27:22;5.00;84.20
70366;DHT22;57787;48.216;12.396;2024-02-26T08:29:51;5.00;84.50
70366;DHT22;57787;48.216;12.396;2024-02-26T08:32:18;5.10;83.50
70366;DHT22;57787;48.216;12.396;2024-02-26T08:34:45;5.20;82.60
70366;DHT22;57787;48.216;12.396;2024-02-26T08:37:12;5.40;83.60
70366;DHT22;57787;48.216;12.396;2024-02-26T08:39:38;5.60;83.70
70366;DHT22;57787;48.216;12.396;2024-02-26T08:42:08;5.90;82.80
70366;DHT22;57787;48.216;12.396;2024-02-26T08:44:38;6.30;81.20
70366;DHT22;57787;48.216;12.396;2024-02-26T08:47:08;6.60;82.60
70366;DHT22;57787;48.216;12.396;2024-02-26T08:49:35;6.90;79.10
70366;DHT22;57787;48.216;12.396;2024-02-26T08:52:04;7.30;81.60
70366;DHT22;57787;48.216;12.396;2024-02-26T08:54:33;7.50;75.60
70366;DHT22;57787;48.216;12.396;2024-02-26T08:57:00;7.50;73.80
70366;DHT22;57787;48.216;12.396;2024-02-26T08:59:29;7.30;71.80
70366;DHT22;57787;48.216;12.396;2024-02-26T09:01:56;7.20;74.30
70366;DHT22;57787;48.216;12.396;2024-02-26T09:04:23;7.00;72.60
70366;DHT22;57787;48.216;12.396;2024-02-26T09:06:49;6.90;73.40
70366;DHT22;57787;48.216;12.396;2024-02-26T09:09:16;6.70;73.40
70366;DHT22;57787;48.216;12.396;2024-02-26T09:11:43;6.60;74.10
70366;DHT22;57787;48.216;12.396;2024-02-26T09:14:10;6.60;73.30
70366;DHT22;57787;48.216;12.396;2024-02-26T09:16:37;6.80;72.30
70366;DHT22;57787;48.216;12.396;2024-02-26T09:19:05;7.10;74.00
70366;DHT22;57787;48.216;12.396;2024-02-26T09:21:32;7.30;71.90
70366;DHT22;57787;48.216;12.396;2024-02-26T09:23:58;7.50;71.30
70366;DHT22;57787;48.216;12.396;2024-02-26T09:26:27;7.60;69.10
70366;DHT22;57787;48.216;12.396;2024-02-26T09:28:54;7.80;70.90
70366;DHT22;57787;48.216;12.396;2024-02-26T09:31:21;7.80;68.90
70366;DHT22;57787;48.216;12.396;2024-02-26T09:33:47;7.90;71.00
70366;DHT22;57787;48.216;12.396;2024-02-26T09:36:14;7.90;69.40
70366;DHT22;57787;48.216;12.396;2024-02-26T09:38:41;8.00;68.80
70366;DHT22;57787;48.216;12.396;2024-02-26T09:41:22;8.00;68.00
70366;DHT22;57787;48.216;12.396;2024-02-26T09:43:49;8.10;68.40
70366;DHT22;57787;48.216;12.396;2024-02-26T09:46:19;8.30;68.50
70366;DHT22;57787;48.216;12.396;2024-02-26T09:48:49;8.50;66.60
70366;DHT22;57787;48.216;12.396;2024-02-26T09:51:16;8.80;66.40
70366;DHT22;57787;48.216;12.396;2024-02-26T09:53:43;8.80;64.00
70366;DHT22;57787;48.216;12.396;2024-02-26T09:56:12;8.90;64.10
70366;DHT22;57787;48.216;12.396;2024-02-26T09:58:42;8.90;63.20
70366;DHT22;57787;48.216;12.396;2024-02-26T10:01:13;8.90;63.90
70366;DHT22;57787;48.216;12.396;2024-02-26T10:03:46;8.90;64.00
70366;DHT22;57787;48.216;12.396;2024-02-26T10:06:14;8.90;64.20
70366;DHT22;57787;48.216;12.396;2024-02-26T10:08:41;9.00;63.80
70366;DHT22;57787;48.216;12.396;2024-02-26T10:11:08;9.10;63.30
70366;DHT22;57787;48.216;12.396;2024-02-26T10:13:35;9.10;63.30
70366;DHT22;57787;48.216;12.396;2024-02-26T10:16:03;9.30;62.80
70366;DHT22;57787;48.216;12.396;2024-02-26T10:21:17;9.30;62.80
70366;DHT22;57787;48.216;12.396;2024-02-26T10:23:53;9.30;62.50
70366;DHT22;57787;48.216;12.396;2024-02-26T10:26:21;9.20;62.40
70366;DHT22;57787;48.216;12.396;2024-02-26T10:28:52;9.30;62.10
70366;DHT22;57787;48.216;12.396;2024-02-26T10:31:21;9.40;62.30
70366;DHT22;57787;48.216;12.396;2024-02-26T10:33:48;9.50;61.30
70366;DHT22;57787;48.216;12.396;2024-02-26T10:36:16;9.60;61.60
70366;DHT22;57787;48.216;12.396;2024-02-26T10:38:43;9.70;61.20
70366;DHT22;57787;48.216;12.396;2024-02-26T10:41:12;9.80;60.40
70366;DHT22;57787;48.216;12.396;2024-02-26T10:43:39;9.80;62.10
70366;DHT22;57787;48.216;12.396;2024-02-26T10:46:07;9.80;59.80
70366;DHT22;57787;48.216;12.396;2024-02-26T10:48:34;9.90;61.00
70366;DHT22;57787;48.216;12.396;2024-02-26T10:51:04;10.00;60.40
70366;DHT22;57787;48.216;12.396;2024-02-26T10:53:31;10.10;59.80
70366;DHT22;57787;48.216;12.396;2024-02-26T10:56:00;10.10;60.50
70366;DHT22;57787;48.216;12.396;2024-02-26T10:58:28;10.10;60.80
70366;DHT22;57787;48.216;12.396;2024-02-26T11:00:56;10.10;60.90
70366;DHT22;57787;48.216;12.396;2024-02-26T11:03:24;10.10;61.00
70366;DHT22;57787;48.216;12.396;2024-02-26T11:05:52;10.10;61.30
70366;DHT22;57787;48.216;12.396;2024-02-26T11:08:20;10.10;60.80
70366;DHT22;57787;48.216;12.396;2024-02-26T11:10:55;10.00;61.60
70366;DHT22;57787;48.216;12.396;2024-02-26T11:13:23;9.90;61.10
70366;DHT22;57787;48.216;12.396;2024-02-26T11:15:54;10.00;61.70
70366;DHT22;57787;48.216;12.396;2024-02-26T11:18:22;10.10;61.40
70366;DHT22;57787;48.216;12.396;2024-02-26T11:20:49;10.20;61.70
70366;DHT22;57787;48.216;12.396;2024-02-26T11:23:17;10.30;60.40
70366;DHT22;57787;48.216;12.396;2024-02-26T11:25:44;10.40;60.20
70366;DHT22;57787;48.216;12.396;2024-02-26T11:28:12;10.30;60.10
70366;DHT22;57787;48.216;12.396;2024-02-26T11:30:41;10.50;60.80
70366;DHT22;57787;48.216;12.396;2024-02-26T11:33:09;10.50;59.90
70366;DHT22;57787;48.216;12.396;2024-02-26T11:35:36;10.60;59.80
70366;DHT22;57787;48.216;12.396;2024-02-26T11:38:04;10.60;58.80
70366;DHT22;57787;48.216;12.396;2024-02-26T11:40:33;10.70;59.70
70366;DHT22;57787;48.216;12.396;2024-02-26T11:43:00;10.80;59.60
70366;DHT22;57787;48.216;12.396;2024-02-26T11:50:41;11.00;58.80
70366;DHT22;57787;48.216;12.396;2024-02-26T11:53:27;11.10;58.10
70366;DHT22;57787;48.216;12.396;2024-02-26T11:58:40;11.30;57.70
70366;DHT22;57787;48.216;12.396;2024-02-26T12:03:56;11.30;57.50
70366;DHT22;57787;48.216;12.396;2024-02-26T12:06:23;11.50;57.80
70366;DHT22;57787;48.216;12.396;2024-02-26T12:08:52;11.70;57.10
70366;DHT22;57787;48.216;12.396;2024-02-26T12:11:19;11.90;56.50
70366;DHT22;57787;48.216;12.396;2024-02-26T12:13:47;12.10;55.10
70366;DHT22;57787;48.216;12.396;2024-02-26T12:16:13;12.20;55.60
70366;DHT22;57787;48.216;12.396;2024-02-26T12:19:00;12.30;55.10
70366;DHT22;57787;48.216;12.396;2024-02-26T12:21:27;12.40;54.60
70366;DHT22;57787;48.216;12.396;2024-02-26T12:23:54;12.60;54.50
70366;DHT22;57787;48.216;12.396;2024-02-26T12:26:21;12.80;53.90
70366;DHT22;57787;48.216;12.396;2024-02-26T12:28:51;12.90;53.50
70366;DHT22;57787;48.216;12.396;2024-02-26T12:31:18;13.10;52.40
70366;DHT22;57787;48.216;12.396;2024-02-26T12:33:45;13.30;51.70
70366;DHT22;57787;48.216;12.396;2024-02-26T12:36:12;13.40;52.00
70366;DHT22;57787;48.216;12.396;2024-02-26T12:38:40;13.50;51.50
70366;DHT22;57787;48.216;12.396;2024-02-26T12:41:06;13.80;50.60
70366;DHT22;57787;48.216;12.396;2024-02-26T12:43:33;14.00;50.20
70366;DHT22;57787;48.216;12.396;2024-02-26T12:46:07;14.10;50.00
70366;DHT22;57787;48.216;12.396;2024-02-26T12:48:35;14.30;49.30
70366;DHT22;57787;48.216;12.396;2024-02-26T12:51:02;14.50;48.50
70366;DHT22;57787;48.216;12.396;2024-02-26T12:53:28;14.70;48.50
70366;DHT22;57787;48.216;12.396;2024-02-26T12:55:55;14.70;47.40
70366;DHT22;57787;48.216;12.396;2024-02-26T12:58:22;14.50;46.70
70366;DHT22;57787;48.216;12.396;2024-02-26T13:00:52;14.40;48.30
70366;DHT22;57787;48.216;12.396;2024-02-26T13:03:20;14.30;47.50
70366;DHT22;57787;48.216;12.396;2024-02-26T13:05:49;14.20;48.40
70366;DHT22;57787;48.216;12.396;2024-02-26T13:08:20;14.20;49.00
70366;DHT22;57787;48.216;12.396;2024-02-26T13:10:51;14.10;46.90
70366;DHT22;57787;48.216;12.396;2024-02-26T13:13:18;14.00;47.20
70366;DHT22;57787;48.216;12.396;2024-02-26T13:15:46;13.70;47.60
70366;DHT22;57787;48.216;12.396;2024-02-26T13:18:14;13.70;48.60
70366;DHT22;57787;48.216;12.396;2024-02-26T13:20:42;13.70;47.30
70366;DHT22;57787;48.216;12.396;2024-02-26T13:23:12;13.60;47.30
70366;DHT22;57787;48.216;12.396;2024-02-26T13:25:40;13.50;48.20
70366;DHT22;57787;48.216;12.396;2024-02-26T13:28:15;13.70;48.10
70366;DHT22;57787;48.216;12.396;2024-02-26T13:30:55;13.70;47.20
70366;DHT22;57787;48.216;12.396;2024-02-26T13:33:27;13.80;47.10
70366;DHT22;57787;48.216;12.396;2024-02-26T13:35:58;13.80;46.90
70366;DHT22;57787;48.216;12.396;2024-02-26T13:38:25;13.90;47.10
70366;DHT22;57787;48.216;12.396;2024-02-26T13:40:55;14.00;47.40
70366;DHT22;57787;48.216;12.396;2024-02-26T13:43:22;13.90;47.60
70366;DHT22;57787;48.216;12.396;2024-02-26T13:45:49;13.80;47.40
70366;DHT22;57787;48.216;12.396;2024-02-26T13:48:17;13.70;47.60
70366;DHT22;57787;48.216;12.396;2024-02-26T13:50:47;13.60;47.90
70366;DHT22;57787;48.216;12.396;2024-02-26T13:53:20;13.70;47.00
70366;DHT22;57787;48.216;12.396;2024-02-26T13:55:50;13.70;46.60
70366;DHT22;57787;48.216;12.396;2024-02-26T13:58:16;13.50;48.20
70366;DHT22;57787;48.216;12.396;2024-02-26T14:00:48;13.60;48.10
70366;DHT22;57787;48.216;12.396;2024-02-26T14:03:15;13.50;46.60
70366;DHT22;57787;48.216;12.396;2024-02-26T14:05:43;13.50;46.20
70366;DHT22;57787;48.216;12.396;2024-02-26T14:08:14;13.50;46.50
70366;DHT22;57787;48.216;12.396;2024-02-26T14:10:44;13.40;46.80
70366;DHT22;57787;48.216;12.396;2024-02-26T14:13:14;13.40;46.10
70366;DHT22;57787;48.216;12.396;2024-02-26T14:15:40;13.40;46.60
70366;DHT22;57787;48.216;12.396;2024-02-26T14:18:07;13.40;47.00
70366;DHT22;57787;48.216;12.396;2024-02-26T14:20:35;13.40;46.80
70366;DHT22;57787;48.216;12.396;2024-02-26T14:23:02;13.40;46.50
70366;DHT22;57787;48.216;12.396;2024-02-26T14:25:30;13.40;46.60
70366;DHT22;57787;48.216;12.396;2024-02-26T14:28:05;13.30;46.20
70366;DHT22;57787;48.216;12.396;2024-02-26T14:30:47;13.30;46.50
70366;DHT22;57787;48.216;12.396;2024-02-26T14:33:14;13.30;47.50
70366;DHT22;57787;48.216;12.396;2024-02-26T14:35:41;13.30;47.40
70366;DHT22;57787;48.216;12.396;2024-02-26T14:38:08;13.30;47.40
70366;DHT22;57787;48.216;12.396;2024-02-26T14:40:35;13.20;47.70
70366;DHT22;57787;48.216;12.396;2024-02-26T14:43:02;13.20;48.10
70366;DHT22;57787;48.216;12.396;2024-02-26T14:45:31;13.20;47.80
70366;DHT22;57787;48.216;12.396;2024-02-26T14:47:58;13.20;48.60
70366;DHT22;57787;48.216;12.396;2024-02-26T14:50:27;13.30;48.80
70366;DHT22;57787;48.216;12.396;2024-02-26T14:52:54;13.40;48.30
70366;DHT22;57787;48.216;12.396;2024-02-26T14:55:20;13.40;47.30
70366;DHT22;57787;48.216;12.396;2024-02-26T14:57:48;13.50;48.10
70366;DHT22;57787;48.216;12.396;2024-02-26T15:00:15;13.50;47.90
70366;DHT22;57787;48.216;12.396;2024-02-26T15:02:42;13.50;47.60
70366;DHT22;57787;48.216;12.396;2024-02-26T15:05:09;13.60;47.20
70366;DHT22;57787;48.216;12.396;2024-02-26T15:07:38;13.70;45.10
70366;DHT22;57787;48.216;12.396;2024-02-26T15:10:07;13.60;45.20
70366;DHT22;57787;48.216;12.396;2024-02-26T15:12:35;13.50;46.10
70366;DHT22;57787;48.216;12.396;2024-02-26T15:15:02;13.40;46.80
70366;DHT22;57787;48.216;12.396;2024-02-26T15:17:30;13.40;46.30
70366;DHT22;57787;48.216;12.396;2024-02-26T15:20:03;13.30;46.00
70366;DHT22;57787;48.216;12.396;2024-02-26T15:22:32;13.20;45.80
70366;DHT22;57787;48.216;12.396;2024-02-26T15:24:59;13.10;49.20
70366;DHT22;57787;48.216;12.396;2024-02-26T15:27:26;13.00;53.50
70366;DHT22;57787;48.216;12.396;2024-02-26T15:29:53;12.80;55.30
70366;DHT22;57787;48.216;12.396;2024-02-26T15:32:25;12.70;57.00
70366;DHT22;57787;48.216;12.396;2024-02-26T15:34:53;12.60;57.90
70366;DHT22;57787;48.216;12.396;2024-02-26T15:37:21;12.50;58.10